Time;durP1;ratioP1;P1;durP2;ratioP2;P2;SDS_P1;SDS_P2;PMS_P1;PMS_P2;Temp;Humidity;BMP_temperature;BMP_pressure;BME280_temperature;BME280_humidity;BME280_pressure;Samples;Min_cycle;Max_cycle;Signal;HPM_P1;HPM_P2
2023/12/14 00:00:23;;;;;;;;;;;;;;;;;;5067433;28;20333;-57
2023/12/14 00:02:49;;;;;;;;;;;;;;;;;;5069590;28;20326;-57
2023/12/14 00:05:15;;;;;;;;;;;;;;;;;;5072362;28;20009;-57
2023/12/14 00:07:41;;;;;;;;;;;;;;;;;;5069931;28;19919;-57
2023/12/14 00:10:07;;;;;;;;;;;;;;;;;;5069290;28;20113;-57
2023/12/14 00:12:32;;;;;;;;;;;;;;;;;;5069128;28;20001;-57
2023/12/14 00:14:58;;;;;;;;;;;;;;;;;;5069095;28;20416;-57
2023/12/14 00:17:24;;;;;;;;;;;;;;;;;;5067708;28;20347;-57
2023/12/14 00:19:50;;;;;;;;;;;;;;;;;;5062788;28;19948;-57
2023/12/14 00:22:16;;;;;;;;;;;;;;;;;;5068632;28;19948;-57
2023/12/14 00:24:42;;;;;;;;;;;;;;;;;;5069173;28;19960;-57
2023/12/14 00:27:08;;;;;;;;;;;;;;;;;;5068774;28;20355;-57
2023/12/14 00:29:34;;;;;;;;;;;;;;;;;;5062547;28;19952;-57
2023/12/14 00:32:00;;;;;;;;;;;;;;;;;;5065165;28;20051;-57
2023/12/14 00:34:26;;;;;;;;;;;;;;;;;;5070540;28;19946;-57
2023/12/14 00:36:52;;;;;;;;;;;;;;;;;;5069452;28;19948;-57
2023/12/14 00:39:18;;;;;;;;;;;;;;;;;;5068782;28;20340;-57
2023/12/14 00:41:44;;;;;;;;;;;;;;;;;;5068667;28;20431;-57
2023/12/14 00:44:09;;;;;;;;;;;;;;;;;;5067177;28;19959;-58
2023/12/14 00:46:35;;;;;;;;;;;;;;;;;;5069376;28;19944;-60
2023/12/14 00:49:02;;;;;;;;;;;;;;;;;;5069259;28;19977;-57
2023/12/14 00:51:28;;;;;;;;;;;;;;;;;;5068754;28;19928;-57
2023/12/14 00:53:54;;;;;;;;;;;;;;;;;;5068710;28;20066;-57
2023/12/14 00:56:19;;;;;;;;;;;;;;;;;;5069838;28;19954;-57
2023/12/14 00:58:45;;;;;;;;;;;;;;;;;;5068941;28;19970;-57
2023/12/14 01:01:11;;;;;;;;;;;;;;;;;;5065065;28;20002;-57
2023/12/14 01:03:38;;;;;;;;;;;;;;;;;;5068911;28;19948;-57
2023/12/14 01:06:04;;;;;;;;;;;;;;;;;;5068776;28;20249;-57
2023/12/14 01:08:29;;;;;;;;;;;;;;;;;;5067288;28;19957;-57
2023/12/14 01:10:55;;;;;;;;;;;;;;;;;;5067955;28;19951;-57
2023/12/14 01:13:21;;;;;;;;;;;;;;;;;;5068013;28;19982;-57
2023/12/14 01:15:48;;;;;;;;;;;;;;;;;;5066569;28;20001;-57
2023/12/14 01:18:14;;;;;;;;;;;;;;;;;;5068533;28;19951;-57
2023/12/14 01:20:39;;;;;;;;;;;;;;;;;;5067276;28;19985;-57
2023/12/14 01:23:05;;;;;;;;;;;;;;;;;;5067362;28;20234;-57
2023/12/14 01:25:31;;;;;;;;;;;;;;;;;;5068818;28;19967;-57
2023/12/14 01:27:57;;;;;;;;;;;;;;;;;;5068495;28;20375;-58
2023/12/14 01:30:23;;;;;;;;;;;;;;;;;;5062659;28;19968;-57
2023/12/14 01:32:49;;;;;;;;;;;;;;;;;;5062970;28;20380;-57
2023/12/14 01:35:15;;;;;;;;;;;;;;;;;;5069100;28;19923;-57
2023/12/14 01:37:41;;;;;;;;;;;;;;;;;;5066113;28;20007;-57
2023/12/14 01:40:07;;;;;;;;;;;;;;;;;;5065274;28;19952;-57
2023/12/14 01:42:33;;;;;;;;;;;;;;;;;;5068299;28;19916;-57
2023/12/14 01:44:59;;;;;;;;;;;;;;;;;;5063435;28;20311;-57
2023/12/14 01:47:25;;;;;;;;;;;;;;;;;;5067508;28;20020;-57
2023/12/14 01:49:51;;;;;;;;;;;;;;;;;;5068044;28;20331;-57
2023/12/14 01:52:17;;;;;;;;;;;;;;;;;;5067452;28;20425;-57
2023/12/14 01:54:43;;;;;;;;;;;;;;;;;;5065048;28;19964;-57
2023/12/14 01:57:09;;;;;;;;;;;;;;;;;;5067673;28;19959;-57
2023/12/14 01:59:35;;;;;;;;;;;;;;;;;;5062746;28;19944;-58
2023/12/14 02:02:02;;;;;;;;;;;;;;;;;;5081892;22;19960;-80
2023/12/14 02:04:31;;;;;;;;;;;;;;;;;;5046476;28;19921;-82
2023/12/14 02:06:58;;;;;;;;;;;;;;;;;;5042255;28;20356;-81
2023/12/14 02:09:25;;;;;;;;;;;;;;;;;;5045960;28;19924;-81
2023/12/14 02:11:51;;;;;;;;;;;;;;;;;;5045988;28;19923;-81
2023/12/14 02:14:17;;;;;;;;;;;;;;;;;;5052771;28;19960;-81
2023/12/14 02:16:45;;;;;;;;;;;;;;;;;;5052416;28;20324;-81
2023/12/14 02:19:11;;;;;;;;;;;;;;;;;;5047616;28;20012;-81
2023/12/14 02:21:36;;;;;;;;;;;;;;;;;;5049704;28;20016;-81
2023/12/14 02:24:02;;;;;;;;;;;;;;;;;;5043924;28;19965;-81
2023/12/14 02:26:31;;;;;;;;;;;;;;;;;;5050367;28;19952;-81
2023/12/14 02:28:57;;;;;;;;;;;;;;;;;;5044779;28;20391;-82
2023/12/14 02:31:23;;;;;;;;;;;;;;;;;;5045211;28;19951;-82
2023/12/14 02:33:49;;;;;;;;;;;;;;;;;;5049307;28;19955;-81
2023/12/14 02:36:16;;;;;;;;;;;;;;;;;;5044429;28;19956;-81
2023/12/14 02:38:44;;;;;;;;;;;;;;;;;;5049111;28;19913;-81
2023/12/14 02:41:12;;;;;;;;;;;;;;;;;;5042228;28;19923;-80
2023/12/14 02:43:40;;;;;;;;;;;;;;;;;;5042838;28;20378;-82
2023/12/14 02:46:06;;;;;;;;;;;;;;;;;;5048218;28;19921;-82
2023/12/14 02:48:32;;;;;;;;;;;;;;;;;;5047992;28;19917;-81
2023/12/14 02:51:00;;;;;;;;;;;;;;;;;;5048034;28;19923;-81
2023/12/14 02:53:26;;;;;;;;;;;;;;;;;;5048676;28;19931;-81
2023/12/14 02:55:52;;;;;;;;;;;;;;;;;;5048271;28;19917;-81
2023/12/14 02:58:18;;;;;;;;;;;;;;;;;;5049916;28;20466;-81
2023/12/14 03:00:44;;;;;;;;;;;;;;;;;;5049836;28;19920;-80
2023/12/14 03:03:11;;;;;;;;;;;;;;;;;;5040533;28;19936;-81
2023/12/14 03:05:38;;;;;;;;;;;;;;;;;;5046528;28;20006;-81
2023/12/14 03:08:05;;;;;;;;;;;;;;;;;;5047863;28;19928;-81
2023/12/14 03:10:31;;;;;;;;;;;;;;;;;;5049233;28;19932;-81
2023/12/14 03:13:00;;;;;;;;;;;;;;;;;;5048602;28;19974;-81
2023/12/14 03:15:26;;;;;;;;;;;;;;;;;;5049336;28;19928;-81
2023/12/14 03:17:53;;;;;;;;;;;;;;;;;;5049534;28;20317;-81
2023/12/14 03:20:19;;;;;;;;;;;;;;;;;;5043709;28;20036;-81
2023/12/14 03:22:45;;;;;;;;;;;;;;;;;;5046372;28;20445;-81
2023/12/14 03:25:11;;;;;;;;;;;;;;;;;;5045200;28;19979;-81
2023/12/14 03:27:37;;;;;;;;;;;;;;;;;;5041839;28;19948;-82
2023/12/14 03:30:07;;;;;;;;;;;;;;;;;;5045042;28;19984;-81
2023/12/14 03:32:33;;;;;;;;;;;;;;;;;;5050007;28;19954;-80
2023/12/14 03:34:59;;;;;;;;;;;;;;;;;;5049485;28;20316;-81
2023/12/14 03:37:25;;;;;;;;;;;;;;;;;;5050244;28;19967;-81
2023/12/14 03:39:51;;;;;;;;;;;;;;;;;;5050039;28;19962;-81
2023/12/14 03:42:17;;;;;;;;;;;;;;;;;;5049101;28;19967;-81
2023/12/14 03:44:43;;;;;;;;;;;;;;;;;;5048410;28;19966;-81
2023/12/14 03:47:09;;;;;;;;;;;;;;;;;;5050559;28;20066;-81
2023/12/14 03:49:35;;;;;;;;;;;;;;;;;;5043205;28;20434;-81
2023/12/14 03:52:00;;;;;;;;;;;;;;;;;;5049771;28;19965;-81
2023/12/14 03:54:26;;;;;;;;;;;;;;;;;;5049190;28;19948;-81
2023/12/14 03:56:52;;;;;;;;;;;;;;;;;;5047666;28;19994;-81
2023/12/14 03:59:18;;;;;;;;;;;;;;;;;;5043206;28;20070;-81
2023/12/14 04:01:44;;;;;;;;;;;;;;;;;;5050495;28;19967;-81
2023/12/14 04:04:10;;;;;;;;;;;;;;;;;;5050494;28;19984;-80
2023/12/14 04:06:36;;;;;;;;;;;;;;;;;;5043116;28;19971;-81
2023/12/14 04:09:02;;;;;;;;;;;;;;;;;;5048470;28;19967;-80
2023/12/14 04:11:28;;;;;;;;;;;;;;;;;;5049867;28;19948;-81
2023/12/14 04:13:54;;;;;;;;;;;;;;;;;;5043478;28;19959;-81
2023/12/14 04:16:20;;;;;;;;;;;;;;;;;;5051861;28;19916;-81
2023/12/14 04:18:46;;;;;;;;;;;;;;;;;;5043951;28;19913;-81
2023/12/14 04:21:12;;;;;;;;;;;;;;;;;;5050490;28;19982;-81
2023/12/14 04:23:38;;;;;;;;;;;;;;;;;;5040638;28;20365;-81
2023/12/14 04:26:04;;;;;;;;;;;;;;;;;;5048704;28;20051;-79
2023/12/14 04:28:30;;;;;;;;;;;;;;;;;;5048870;28;20490;-81
2023/12/14 04:30:56;;;;;;;;;;;;;;;;;;5051002;28;19960;-80
2023/12/14 04:33:22;;;;;;;;;;;;;;;;;;5049921;28;19948;-80
2023/12/14 04:35:48;;;;;;;;;;;;;;;;;;5046960;28;19956;-80
2023/12/14 04:38:14;;;;;;;;;;;;;;;;;;5047408;28;19960;-81
2023/12/14 04:40:40;;;;;;;;;;;;;;;;;;5049464;28;19967;-82
2023/12/14 04:43:06;;;;;;;;;;;;;;;;;;5048901;28;19959;-80
2023/12/14 04:45:31;;;;;;;;;;;;;;;;;;5043038;28;20391;-81
2023/12/14 04:47:57;;;;;;;;;;;;;;;;;;5052910;28;20390;-81
2023/12/14 04:50:24;;;;;;;;;;;;;;;;;;5048546;28;19970;-81
2023/12/14 04:52:50;;;;;;;;;;;;;;;;;;5042218;28;19917;-81
2023/12/14 04:55:15;;;;;;;;;;;;;;;;;;5048792;28;19921;-81
2023/12/14 04:57:42;;;;;;;;;;;;;;;;;;5048638;28;19948;-81
2023/12/14 05:00:08;;;;;;;;;;;;;;;;;;5048934;28;19923;-82
2023/12/14 05:02:34;;;;;;;;;;;;;;;;;;5049848;28;19995;-82
2023/12/14 05:05:00;;;;;;;;;;;;;;;;;;5049145;28;20373;-82
2023/12/14 05:07:26;;;;;;;;;;;;;;;;;;5049443;28;20356;-82
2023/12/14 05:09:52;;;;;;;;;;;;;;;;;;5048655;28;19912;-82
2023/12/14 05:12:17;;;;;;;;;;;;;;;;;;5049088;28;19967;-80
2023/12/14 05:14:43;;;;;;;;;;;;;;;;;;5041839;28;19953;-81
2023/12/14 05:17:10;;;;;;;;;;;;;;;;;;5048589;28;20364;-81
2023/12/14 05:19:37;;;;;;;;;;;;;;;;;;5049219;28;19962;-81
2023/12/14 05:22:03;;;;;;;;;;;;;;;;;;5041729;28;19913;-81
2023/12/14 05:24:28;;;;;;;;;;;;;;;;;;5048194;28;20040;-81
2023/12/14 05:26:54;;;;;;;;;;;;;;;;;;5045817;28;20321;-81
2023/12/14 05:29:21;;;;;;;;;;;;;;;;;;5039082;28;20380;-81
2023/12/14 05:31:47;;;;;;;;;;;;;;;;;;5046442;28;19955;-81
2023/12/14 05:34:13;;;;;;;;;;;;;;;;;;5046673;28;19967;-80
2023/12/14 05:36:39;;;;;;;;;;;;;;;;;;5048182;28;19956;-81
2023/12/14 05:39:05;;;;;;;;;;;;;;;;;;5033813;28;19968;-80
2023/12/14 05:41:31;;;;;;;;;;;;;;;;;;5048632;28;20021;-81
2023/12/14 05:43:57;;;;;;;;;;;;;;;;;;5045102;28;19966;-76
2023/12/14 05:46:23;;;;;;;;;;;;;;;;;;5048968;28;19953;-75
2023/12/14 05:48:49;;;;;;;;;;;;;;;;;;5047238;28;19924;-76
2023/12/14 05:51:15;;;;;;;;;;;;;;;;;;5047322;28;20366;-76
2023/12/14 05:53:41;;;;;;;;;;;;;;;;;;5044283;28;19913;-76
2023/12/14 05:56:07;;;;;;;;;;;;;;;;;;5046721;28;19959;-77
2023/12/14 05:58:33;;;;;;;;;;;;;;;;;;5045981;28;19963;-76
2023/12/14 06:00:59;;;;;;;;;;;;;;;;;;5047551;28;19971;-76
2023/12/14 06:03:24;;;;;;;;;;;;;;;;;;5049032;28;20097;-77
2023/12/14 06:05:50;;;;;;;;;;;;;;;;;;5052842;28;19955;-77
2023/12/14 06:08:16;;;;;;;;;;;;;;;;;;5046715;28;19963;-76
2023/12/14 06:10:42;;;;;;;;;;;;;;;;;;5048081;28;19993;-76
2023/12/14 06:13:08;;;;;;;;;;;;;;;;;;5047723;28;19967;-75
2023/12/14 06:15:34;;;;;;;;;;;;;;;;;;5046557;28;20034;-77
2023/12/14 06:18:00;;;;;;;;;;;;;;;;;;5048310;28;19956;-76
2023/12/14 06:20:26;;;;;;;;;;;;;;;;;;5043114;28;19954;-79
2023/12/14 06:22:55;;;;;;;;;;;;;;;;;;5045705;28;19912;-84
2023/12/14 06:25:21;;;;;;;;;;;;;;;;;;5046989;28;20323;-85
2023/12/14 06:27:47;;;;;;;;;;;;;;;;;;5046561;28;19960;-79
2023/12/14 06:30:13;;;;;;;;;;;;;;;;;;5046250;28;19948;-77
2023/12/14 06:32:39;;;;;;;;;;;;;;;;;;5043890;28;20015;-76
2023/12/14 06:35:05;;;;;;;;;;;;;;;;;;5048497;28;20027;-76
2023/12/14 06:37:31;;;;;;;;;;;;;;;;;;5048825;28;19913;-76
2023/12/14 06:39:57;;;;;;;;;;;;;;;;;;5048389;28;20307;-76
2023/12/14 06:42:22;;;;;;;;;;;;;;;;;;5046082;28;20035;-75
2023/12/14 06:44:48;;;;;;;;;;;;;;;;;;5041926;28;20505;-76
2023/12/14 06:47:14;;;;;;;;;;;;;;;;;;5047431;28;19947;-77
2023/12/14 06:49:40;;;;;;;;;;;;;;;;;;5047002;28;20201;-76
2023/12/14 06:52:07;;;;;;;;;;;;;;;;;;5045721;28;19974;-76
2023/12/14 06:54:33;;;;;;;;;;;;;;;;;;5034083;28;20234;-75
2023/12/14 06:56:59;;;;;;;;;;;;;;;;;;5045809;28;20262;-75
2023/12/14 06:59:25;;;;;;;;;;;;;;;;;;5048462;28;19967;-76
2023/12/14 07:01:51;;;;;;;;;;;;;;;;;;5043325;28;19964;-77
2023/12/14 07:04:19;;;;;;;;;;;;;;;;;;5046811;28;20364;-76
2023/12/14 07:06:45;;;;;;;;;;;;;;;;;;5047540;28;19921;-77
2023/12/14 07:09:11;;;;;;;;;;;;;;;;;;5051866;28;19967;-76
2023/12/14 07:11:37;;;;;;;;;;;;;;;;;;5050322;28;19952;-76
2023/12/14 07:14:04;;;;;;;;;;;;;;;;;;5050159;28;20017;-77
2023/12/14 07:16:30;;;;;;;;;;;;;;;;;;5051995;28;19952;-78
2023/12/14 07:18:56;;;;;;;;;;;;;;;;;;5047722;28;20002;-76
2023/12/14 07:21:22;;;;;;;;;;;;;;;;;;5051075;28;19963;-77
2023/12/14 07:23:48;;;;;;;;;;;;;;;;;;5049335;28;20329;-77
2023/12/14 07:26:14;;;;;;;;;;;;;;;;;;5051749;28;19921;-76
2023/12/14 07:28:40;;;;;;;;;;;;;;;;;;5048384;28;19999;-77
2023/12/14 07:31:05;;;;;;;;;;;;;;;;;;5050122;28;20036;-76
2023/12/14 07:33:31;;;;;;;;;;;;;;;;;;5051362;28;19967;-78
2023/12/14 07:35:57;;;;;;;;;;;;;;;;;;5057483;28;19957;-77
2023/12/14 07:38:23;;;;;;;;;;;;;;;;;;5047074;28;19948;-78
2023/12/14 07:40:50;;;;;;;;;;;;;;;;;;5051640;28;19998;-75
2023/12/14 07:43:15;;;;;;;;;;;;;;;;;;5051042;28;19920;-77
2023/12/14 07:45:41;;;;;;;;;;;;;;;;;;5049546;28;19997;-76
2023/12/14 07:48:07;;;;;;;;;;;;;;;;;;5046621;28;19963;-77
2023/12/14 07:50:33;;;;;;;;;;;;;;;;;;5049801;28;19948;-76
2023/12/14 07:52:59;;;;;;;;;;;;;;;;;;5050569;28;20294;-78
2023/12/14 07:55:25;;;;;;;;;;;;;;;;;;5048410;28;20341;-76
2023/12/14 07:57:51;;;;;;;;;;;;;;;;;;5051005;28;19952;-77
2023/12/14 08:00:17;;;;;;;;;;;;;;;;;;5049658;28;20380;-78
2023/12/14 08:02:43;;;;;;;;;;;;;;;;;;5051072;28;20340;-76
2023/12/14 08:05:09;;;;;;;;;;;;;;;;;;5047684;28;19968;-79
2023/12/14 08:07:35;;;;;;;;;;;;;;;;;;5047265;28;19912;-79
2023/12/14 08:10:01;;;;;;;;;;;;;;;;;;5047742;28;19917;-79
2023/12/14 08:12:27;;;;;;;;;;;;;;;;;;5041652;28;20330;-80
2023/12/14 08:14:54;;;;;;;;;;;;;;;;;;5043096;28;19994;-79
2023/12/14 08:17:20;;;;;;;;;;;;;;;;;;5050246;28;19912;-79
2023/12/14 08:19:46;;;;;;;;;;;;;;;;;;5043867;28;20011;-81
2023/12/14 08:22:12;;;;;;;;;;;;;;;;;;5048838;28;20404;-81
2023/12/14 08:24:38;;;;;;;;;;;;;;;;;;5046693;28;19983;-80
2023/12/14 08:27:04;;;;;;;;;;;;;;;;;;5049042;28;19932;-81
2023/12/14 08:29:30;;;;;;;;;;;;;;;;;;5042350;28;19956;-80
2023/12/14 08:31:57;;;;;;;;;;;;;;;;;;5049203;28;19927;-81
2023/12/14 08:34:23;;;;;;;;;;;;;;;;;;5040450;28;19920;-81
2023/12/14 08:36:49;;;;;;;;;;;;;;;;;;5050587;28;20506;-83
2023/12/14 08:39:15;;;;;;;;;;;;;;;;;;5049523;28;20003;-83
2023/12/14 08:41:41;;;;;;;;;;;;;;;;;;5050171;28;19959;-82
2023/12/14 08:44:07;;;;;;;;;;;;;;;;;;5047926;28;19924;-83
2023/12/14 08:46:33;;;;;;;;;;;;;;;;;;5048919;28;19971;-83
2023/12/14 08:48:59;;;;;;;;;;;;;;;;;;5048011;28;20321;-81
2023/12/14 08:51:26;;;;;;;;;;;;;;;;;;5032860;28;19913;-82
2023/12/14 08:53:52;;;;;;;;;;;;;;;;;;5049366;28;19923;-81
2023/12/14 08:56:18;;;;;;;;;;;;;;;;;;5046147;28;20256;-81
2023/12/14 08:58:44;;;;;;;;;;;;;;;;;;5055169;28;20370;-81
2023/12/14 09:01:10;;;;;;;;;;;;;;;;;;5044829;28;19957;-81
2023/12/14 09:03:36;;;;;;;;;;;;;;;;;;5035831;28;20027;-80
2023/12/14 09:06:05;;;;;;;;;;;;;;;;;;5039068;28;19966;-80
2023/12/14 09:08:31;;;;;;;;;;;;;;;;;;5047811;28;20038;-81
2023/12/14 09:10:57;;;;;;;;;;;;;;;;;;5049731;28;19913;-80
2023/12/14 09:13:22;;;;;;;;;;;;;;;;;;5047473;28;20070;-82
2023/12/14 09:15:52;;;;;;;;;;;;;;;;;;5049057;28;20183;-83
2023/12/14 09:18:18;;;;;;;;;;;;;;;;;;5041166;28;20347;-83
2023/12/14 09:20:44;;;;;;;;;;;;;;;;;;5048356;28;19923;-82
2023/12/14 09:23:10;;;;;;;;;;;;;;;;;;5044489;28;20008;-82
2023/12/14 09:25:36;;;;;;;;;;;;;;;;;;5045554;28;20000;-83
2023/12/14 09:28:02;;;;;;;;;;;;;;;;;;5048049;28;19917;-82
2023/12/14 09:30:28;;;;;;;;;;;;;;;;;;5048061;28;20351;-83
2023/12/14 09:32:54;;;;;;;;;;;;;;;;;;5045852;28;20350;-82
2023/12/14 09:35:20;;;;;;;;;;;;;;;;;;5049036;28;19916;-83
2023/12/14 09:37:45;;;;;;;;;;;;;;;;;;5049545;28;19963;-83
2023/12/14 09:40:12;;;;;;;;;;;;;;;;;;5048957;28;20572;-82
2023/12/14 09:42:38;;;;;;;;;;;;;;;;;;5049304;28;19916;-82
2023/12/14 09:45:04;;;;;;;;;;;;;;;;;;5046784;28;19947;-82
2023/12/14 09:47:30;;;;;;;;;;;;;;;;;;5048833;28;19981;-82
2023/12/14 09:49:56;;;;;;;;;;;;;;;;;;5047689;28;20313;-83
2023/12/14 09:52:22;;;;;;;;;;;;;;;;;;5048779;28;19942;-83
2023/12/14 09:54:48;;;;;;;;;;;;;;;;;;5048145;28;20217;-83
2023/12/14 09:57:14;;;;;;;;;;;;;;;;;;5048989;28;20400;-83
2023/12/14 09:59:41;;;;;;;;;;;;;;;;;;5047061;28;19944;-82
2023/12/14 10:02:07;;;;;;;;;;;;;;;;;;5047337;28;20405;-83
2023/12/14 10:04:33;;;;;;;;;;;;;;;;;;5047231;28;20000;-83
2023/12/14 10:07:05;;;;;;;;;;;;;;;;;;5048496;28;19963;-83
2023/12/14 10:09:32;;;;;;;;;;;;;;;;;;5047429;28;20335;-83
2023/12/14 10:11:58;;;;;;;;;;;;;;;;;;5047983;28;19917;-83
2023/12/14 10:14:27;;;;;;;;;;;;;;;;;;5045451;28;19912;-83
2023/12/14 10:16:52;;;;;;;;;;;;;;;;;;5047846;28;20370;-83
2023/12/14 10:19:18;;;;;;;;;;;;;;;;;;5047695;28;20017;-83
2023/12/14 10:21:45;;;;;;;;;;;;;;;;;;5047727;28;20010;-83
2023/12/14 10:24:11;;;;;;;;;;;;;;;;;;5039394;28;19928;-80
2023/12/14 10:26:37;;;;;;;;;;;;;;;;;;5039277;28;19960;-80
2023/12/14 10:29:04;;;;;;;;;;;;;;;;;;5046251;28;20340;-80
2023/12/14 10:31:30;;;;;;;;;;;;;;;;;;5047978;28;19956;-80
2023/12/14 10:33:56;;;;;;;;;;;;;;;;;;5047352;28;19916;-80
2023/12/14 10:36:24;;;;;;;;;;;;;;;;;;5047625;28;20365;-80
2023/12/14 10:38:49;;;;;;;;;;;;;;;;;;5046138;28;19921;-80
2023/12/14 10:41:15;;;;;;;;;;;;;;;;;;5048524;28;20002;-80
2023/12/14 10:43:42;;;;;;;;;;;;;;;;;;5047996;28;19967;-80
2023/12/14 10:46:08;;;;;;;;;;;;;;;;;;5050520;28;20283;-79
2023/12/14 10:48:34;;;;;;;;;;;;;;;;;;5050687;28;19920;-80
2023/12/14 10:51:00;;;;;;;;;;;;;;;;;;5051302;28;19974;-80
2023/12/14 10:53:26;;;;;;;;;;;;;;;;;;5050664;28;19913;-80
2023/12/14 10:55:52;;;;;;;;;;;;;;;;;;5050961;28;19909;-80
2023/12/14 10:58:18;;;;;;;;;;;;;;;;;;5050009;28;20081;-80
2023/12/14 11:00:44;;;;;;;;;;;;;;;;;;4987723;28;1779071;-80
2023/12/14 11:03:10;;;;;;;;;;;;;;;;;;5049744;28;19923;-80
2023/12/14 11:05:37;;;;;;;;;;;;;;;;;;5050419;28;19952;-80
2023/12/14 11:08:09;;;;;;;;;;;;;;;;;;5051592;28;20015;-80
2023/12/14 11:10:35;;;;;;;;;;;;;;;;;;5051463;28;19939;-79
2023/12/14 11:13:01;;;;;;;;;;;;;;;;;;5049889;28;20329;-80
2023/12/14 11:15:27;;;;;;;;;;;;;;;;;;5050444;28;19920;-80
2023/12/14 11:17:53;;;;;;;;;;;;;;;;;;5052385;28;20317;-80
2023/12/14 11:20:19;;;;;;;;;;;;;;;;;;5049501;28;19986;-80
2023/12/14 11:22:45;;;;;;;;;;;;;;;;;;5051602;28;20060;-80
2023/12/14 11:25:11;;;;;;;;;;;;;;;;;;5049945;28;19968;-80
2023/12/14 11:27:37;;;;;;;;;;;;;;;;;;5050118;28;19952;-80
2023/12/14 11:30:03;;;;;;;;;;;;;;;;;;5046592;28;20360;-80
2023/12/14 11:32:29;;;;;;;;;;;;;;;;;;5050173;28;19963;-79
2023/12/14 11:34:55;;;;;;;;;;;;;;;;;;5051269;28;19916;-78
2023/12/14 11:37:22;;;;;;;;;;;;;;;;;;5052957;28;19940;-77
2023/12/14 11:39:48;;;;;;;;;;;;;;;;;;5054693;28;19913;-79
2023/12/14 11:42:18;;;;;;;;;;;;;;;;;;5052073;28;20411;-79
2023/12/14 11:44:43;;;;;;;;;;;;;;;;;;5048818;28;19917;-78
2023/12/14 11:47:09;;;;;;;;;;;;;;;;;;5051123;28;20470;-78
2023/12/14 11:49:36;;;;;;;;;;;;;;;;;;5050929;28;20400;-77
2023/12/14 11:52:03;;;;;;;;;;;;;;;;;;5049440;28;19909;-78
2023/12/14 11:54:29;;;;;;;;;;;;;;;;;;5050051;28;19913;-77
2023/12/14 11:56:55;;;;;;;;;;;;;;;;;;5051532;28;20441;-77
2023/12/14 11:59:21;;;;;;;;;;;;;;;;;;5050008;28;20002;-78
2023/12/14 12:01:47;;;;;;;;;;;;;;;;;;5050953;28;20026;-77
2023/12/14 12:04:13;;;;;;;;;;;;;;;;;;5050418;28;19955;-78
2023/12/14 12:06:39;;;;;;;;;;;;;;;;;;5050144;28;20103;-78
2023/12/14 12:09:08;;;;;;;;;;;;;;;;;;5050762;28;19990;-78
2023/12/14 12:11:34;;;;;;;;;;;;;;;;;;5050311;28;19912;-78
2023/12/14 12:14:00;;;;;;;;;;;;;;;;;;5048798;28;20272;-79
2023/12/14 12:16:26;;;;;;;;;;;;;;;;;;5051045;28;20457;-78
2023/12/14 12:18:52;;;;;;;;;;;;;;;;;;5050013;28;19991;-79
2023/12/14 12:21:18;;;;;;;;;;;;;;;;;;5050566;28;19980;-78
2023/12/14 12:23:43;;;;;;;;;;;;;;;;;;5049493;28;20364;-79
2023/12/14 12:26:09;;;;;;;;;;;;;;;;;;5050892;28;19940;-78
2023/12/14 12:28:35;;;;;;;;;;;;;;;;;;5048684;28;20017;-79
2023/12/14 12:31:01;;;;;;;;;;;;;;;;;;5048001;28;19920;-77
2023/12/14 12:33:28;;;;;;;;;;;;;;;;;;5045629;28;19975;-78
2023/12/14 12:35:54;;;;;;;;;;;;;;;;;;5049722;28;20011;-78
2023/12/14 12:38:20;;;;;;;;;;;;;;;;;;5048116;28;19916;-79
2023/12/14 12:40:46;;;;;;;;;;;;;;;;;;5049940;28;19959;-77
2023/12/14 12:43:12;;;;;;;;;;;;;;;;;;5049286;28;19956;-78
2023/12/14 12:45:38;;;;;;;;;;;;;;;;;;5049449;28;20389;-80
2023/12/14 12:48:05;;;;;;;;;;;;;;;;;;5049948;28;19948;-80
2023/12/14 12:50:31;;;;;;;;;;;;;;;;;;5048898;28;20474;-80
2023/12/14 12:52:57;;;;;;;;;;;;;;;;;;5050179;28;19995;-80
2023/12/14 12:55:23;;;;;;;;;;;;;;;;;;5049898;28;19944;-80
2023/12/14 12:57:49;;;;;;;;;;;;;;;;;;5050474;28;19971;-80
2023/12/14 13:00:15;;;;;;;;;;;;;;;;;;5048516;28;19992;-80
2023/12/14 13:02:41;;;;;;;;;;;;;;;;;;5049299;28;19956;-80
2023/12/14 13:05:07;;;;;;;;;;;;;;;;;;5048391;28;20400;-80
2023/12/14 13:07:33;;;;;;;;;;;;;;;;;;5050166;28;20242;-80
2023/12/14 13:09:59;;;;;;;;;;;;;;;;;;5049339;28;19966;-80
2023/12/14 13:12:26;;;;;;;;;;;;;;;;;;5049370;28;19925;-80
2023/12/14 13:14:51;;;;;;;;;;;;;;;;;;5047922;28;19912;-80
2023/12/14 13:17:17;;;;;;;;;;;;;;;;;;5046709;28;19963;-80
2023/12/14 13:19:43;;;;;;;;;;;;;;;;;;5049357;28;20320;-80
2023/12/14 13:22:11;;;;;;;;;;;;;;;;;;5049263;28;19955;-80
2023/12/14 13:24:37;;;;;;;;;;;;;;;;;;5048887;28;19921;-79
2023/12/14 13:27:03;;;;;;;;;;;;;;;;;;5048864;28;19960;-81
2023/12/14 13:29:30;;;;;;;;;;;;;;;;;;5044509;28;20015;-80
2023/12/14 13:31:56;;;;;;;;;;;;;;;;;;5048624;28;20318;-80
2023/12/14 13:34:22;;;;;;;;;;;;;;;;;;5046701;28;19916;-81
2023/12/14 13:36:48;;;;;;;;;;;;;;;;;;5046284;28;19955;-80
2023/12/14 13:39:15;;;;;;;;;;;;;;;;;;5049086;28;19955;-81
2023/12/14 13:41:41;;;;;;;;;;;;;;;;;;5044627;28;20391;-80
2023/12/14 13:44:07;;;;;;;;;;;;;;;;;;5046388;28;20353;-80
2023/12/14 13:46:33;;;;;;;;;;;;;;;;;;5048425;28;19950;-80
2023/12/14 13:48:58;;;;;;;;;;;;;;;;;;5048292;28;19964;-80
2023/12/14 13:51:24;;;;;;;;;;;;;;;;;;5048898;28;19921;-79
2023/12/14 13:53:50;;;;;;;;;;;;;;;;;;5049179;28;19959;-80
2023/12/14 13:56:17;;;;;;;;;;;;;;;;;;5056195;28;19916;-83
2023/12/14 13:58:43;;;;;;;;;;;;;;;;;;5048156;28;19917;-82
2023/12/14 14:01:09;;;;;;;;;;;;;;;;;;5049371;28;20399;-82
2023/12/14 14:03:35;;;;;;;;;;;;;;;;;;5048922;28;20329;-82
2023/12/14 14:06:02;;;;;;;;;;;;;;;;;;5049051;28;19952;-84
2023/12/14 14:08:28;;;;;;;;;;;;;;;;;;5048348;28;19947;-87
2023/12/14 14:10:54;;;;;;;;;;;;;;;;;;5058509;28;19916;-81
2023/12/14 14:13:21;;;;;;;;;;;;;;;;;;5046514;28;19921;-82
2023/12/14 14:15:47;;;;;;;;;;;;;;;;;;5045622;28;20372;-82
2023/12/14 14:18:13;;;;;;;;;;;;;;;;;;5047666;28;19959;-81
2023/12/14 14:20:39;;;;;;;;;;;;;;;;;;5043521;28;19941;-84
2023/12/14 14:23:05;;;;;;;;;;;;;;;;;;5048114;28;19912;-84
2023/12/14 14:25:31;;;;;;;;;;;;;;;;;;5046154;28;19923;-83
2023/12/14 14:27:58;;;;;;;;;;;;;;;;;;5047642;28;19916;-82
2023/12/14 14:30:24;;;;;;;;;;;;;;;;;;5030840;28;19920;-83
2023/12/14 14:32:52;;;;;;;;;;;;;;;;;;5044358;28;19913;-83
2023/12/14 14:35:18;;;;;;;;;;;;;;;;;;5045781;28;20008;-85
2023/12/14 14:37:45;;;;;;;;;;;;;;;;;;5041082;28;20008;-85
2023/12/14 14:40:11;;;;;;;;;;;;;;;;;;5045819;28;20385;-85
2023/12/14 14:42:37;;;;;;;;;;;;;;;;;;5047548;28;20031;-85
2023/12/14 14:45:03;;;;;;;;;;;;;;;;;;5050671;28;19960;-84
2023/12/14 14:47:29;;;;;;;;;;;;;;;;;;5048823;28;19971;-81
2023/12/14 14:50:02;;;;;;;;;;;;;;;;;;5041543;28;19920;-83
2023/12/14 14:52:28;;;;;;;;;;;;;;;;;;5046632;28;19999;-81
2023/12/14 14:54:54;;;;;;;;;;;;;;;;;;5046758;28;19974;-81
2023/12/14 14:57:20;;;;;;;;;;;;;;;;;;5050188;28;19962;-80
2023/12/14 14:59:46;;;;;;;;;;;;;;;;;;5045556;28;20399;-79
2023/12/14 15:02:12;;;;;;;;;;;;;;;;;;5045788;28;19924;-80
2023/12/14 15:04:38;;;;;;;;;;;;;;;;;;5032449;28;20000;-77
2023/12/14 15:07:04;;;;;;;;;;;;;;;;;;5028610;28;19960;-77
2023/12/14 15:09:30;;;;;;;;;;;;;;;;;;5051985;28;19947;-77
2023/12/14 15:11:56;;;;;;;;;;;;;;;;;;5058202;28;19917;-78
2023/12/14 15:14:22;;;;;;;;;;;;;;;;;;5046057;28;19934;-77
2023/12/14 15:16:48;;;;;;;;;;;;;;;;;;5048225;28;19924;-77
2023/12/14 15:19:14;;;;;;;;;;;;;;;;;;5047134;28;19943;-77
2023/12/14 15:21:40;;;;;;;;;;;;;;;;;;5047638;28;19960;-77
2023/12/14 15:24:06;;;;;;;;;;;;;;;;;;5048479;28;19916;-77
2023/12/14 15:26:32;;;;;;;;;;;;;;;;;;5053453;28;19920;-76
2023/12/14 15:28:58;;;;;;;;;;;;;;;;;;5056091;28;19916;-78
2023/12/14 15:31:24;;;;;;;;;;;;;;;;;;5052748;28;20409;-78
2023/12/14 15:33:50;;;;;;;;;;;;;;;;;;5049356;28;19916;-77
2023/12/14 15:36:16;;;;;;;;;;;;;;;;;;5044864;28;19952;-78
2023/12/14 15:38:45;;;;;;;;;;;;;;;;;;5051406;28;19975;-78
2023/12/14 15:41:11;;;;;;;;;;;;;;;;;;5040796;28;19913;-77
2023/12/14 15:43:37;;;;;;;;;;;;;;;;;;5050031;28;19955;-77
2023/12/14 15:46:03;;;;;;;;;;;;;;;;;;5051981;28;20360;-77
2023/12/14 15:48:29;;;;;;;;;;;;;;;;;;5049645;28;20019;-78
2023/12/14 15:50:55;;;;;;;;;;;;;;;;;;5052090;28;20001;-78
2023/12/14 15:53:21;;;;;;;;;;;;;;;;;;5051060;28;20443;-77
2023/12/14 15:55:48;;;;;;;;;;;;;;;;;;5051476;28;19963;-77
2023/12/14 15:58:14;;;;;;;;;;;;;;;;;;5051276;28;20320;-78
2023/12/14 16:00:40;;;;;;;;;;;;;;;;;;5049743;28;19927;-77
2023/12/14 16:03:08;;;;;;;;;;;;;;;;;;5051063;28;19925;-79
2023/12/14 16:05:33;;;;;;;;;;;;;;;;;;5051090;28;19951;-79
2023/12/14 16:07:59;;;;;;;;;;;;;;;;;;5049402;28;19999;-79
2023/12/14 16:10:25;;;;;;;;;;;;;;;;;;5050276;28;20013;-79
2023/12/14 16:12:51;;;;;;;;;;;;;;;;;;5049960;28;20046;-79
2023/12/14 16:15:17;;;;;;;;;;;;;;;;;;5045444;28;19956;-79
2023/12/14 16:17:43;;;;;;;;;;;;;;;;;;5050186;28;19921;-80
2023/12/14 16:20:09;;;;;;;;;;;;;;;;;;5051464;28;20334;-80
2023/12/14 16:22:36;;;;;;;;;;;;;;;;;;5051439;28;19919;-81
2023/12/14 16:25:02;;;;;;;;;;;;;;;;;;5051418;28;19913;-80
2023/12/14 16:27:28;;;;;;;;;;;;;;;;;;5052140;28;19960;-80
2023/12/14 16:29:54;;;;;;;;;;;;;;;;;;5049017;28;19974;-80
2023/12/14 16:32:20;;;;;;;;;;;;;;;;;;5052183;28;19959;-80
2023/12/14 16:34:46;;;;;;;;;;;;;;;;;;5051124;28;19963;-80
2023/12/14 16:37:12;;;;;;;;;;;;;;;;;;5051398;28;20001;-79